首页
METAR-TAF:

METAR-TAF

机场 :

邁亞密國際機場

迈阿密, 佛罗里达州, 美国

纬度: 25-47-26N, 经度: 080-18-59W, 海拔: 3米

当前天气观测

该预报发布于25分钟前的05:53 UTC
静风
温度 27°C
湿度 79%
气压 1016 hPa
能見度: 16.1公里
天空无云

METAR: KMIA 230553Z 00000KT 10SM CLR 27/23 A2999 RMK AO2 SLP154 60000 T02670228 10289 20267 58015

时间: 02:18 (06:18 UTC)

预报

该预报发布于58分钟前的05:20 UTC
预报有效从23日的 06点(UTC)到 24日的 12点(UTC)
风速3节,风向多变
能見度: 10公里
少量云层高于2500英尺
从 23日的 1600点(UTC)
风速8节,风向
能見度: 10公里
散云层高于3500英尺
多云层高于7000英尺
附近有阵雨
从 24日的 0200点(UTC)
风速6节,风向
能見度: 10公里
散云层高于3000英尺
多云层高于5000英尺

TAF: KMIA 230520Z 2306/2412 VRB03KT P6SM FEW025 FM231600 10008KT P6SM VCSH SCT035 BKN070 FM240200 08006KT P6SM SCT030 BKN050

超过4000个机场的气象观测和天气预报(METAR&TAF报告)。

可查询的气象台以黄色和红色小点在地图上表示。

将鼠标移到小点上方,可查看气象台名称。

然后点击查看天气观测和预报。

如需切换地图:点击带黑十字的绿色按钮放大地图;点击带横线的绿色按钮缩小地图;或者点击绿色箭头查看邻近地区的地图。


METAR-TAF: